createdAt,value
2018-05-29T00:01:39.872Z,15.70
2018-05-29T00:04:07.316Z,15.70
2018-05-29T00:06:35.568Z,15.70
2018-05-29T00:09:03.013Z,15.60
2018-05-29T00:11:30.500Z,15.60
2018-05-29T00:13:58.713Z,15.50
2018-05-29T00:16:27.034Z,15.50
2018-05-29T00:18:54.478Z,15.40
2018-05-29T00:21:21.929Z,15.40
2018-05-29T00:23:50.152Z,15.40
2018-05-29T00:26:17.608Z,15.40
2018-05-29T00:28:45.079Z,15.30
2018-05-29T00:31:12.540Z,15.30
2018-05-29T00:33:39.976Z,15.30
2018-05-29T00:36:07.489Z,15.20
2018-05-29T00:38:34.943Z,15.20
2018-05-29T00:41:02.407Z,15.20
2018-05-29T00:43:29.846Z,15.20
2018-05-29T00:45:57.328Z,15.10
2018-05-29T00:48:24.795Z,15.10
2018-05-29T00:50:52.243Z,15.00
2018-05-29T00:53:19.688Z,15.00
2018-05-29T00:55:47.152Z,14.90
2018-05-29T00:58:14.608Z,14.90
2018-05-29T01:00:42.060Z,14.90
2018-05-29T01:03:09.520Z,14.80
2018-05-29T01:05:36.968Z,14.70
2018-05-29T01:08:04.430Z,14.70
2018-05-29T01:10:31.872Z,14.70
2018-05-29T01:12:59.328Z,14.60
2018-05-29T01:15:27.123Z,14.60
2018-05-29T01:17:54.581Z,14.60
2018-05-29T01:20:22.049Z,14.50
2018-05-29T01:22:49.518Z,14.50
2018-05-29T01:25:17.260Z,14.50
2018-05-29T01:27:44.719Z,14.40
2018-05-29T01:30:12.174Z,14.40
2018-05-29T01:32:39.661Z,14.40
2018-05-29T01:35:07.107Z,14.30
2018-05-29T01:37:34.580Z,14.30
2018-05-29T01:40:02.027Z,14.30
2018-05-29T01:42:29.477Z,14.30
2018-05-29T01:44:56.937Z,14.30
2018-05-29T01:47:24.407Z,14.30
2018-05-29T01:49:51.859Z,14.30
2018-05-29T01:52:19.309Z,14.20
2018-05-29T01:54:46.749Z,14.20
2018-05-29T01:57:14.985Z,14.10
2018-05-29T01:59:42.439Z,14.10
2018-05-29T02:02:09.891Z,14.10
2018-05-29T02:04:37.418Z,14.10
2018-05-29T02:07:04.837Z,14.10
2018-05-29T02:09:32.310Z,14.10
2018-05-29T02:11:59.769Z,14.10
2018-05-29T02:14:28.420Z,14.10
2018-05-29T02:16:55.885Z,14.10
2018-05-29T02:19:23.333Z,14.10
2018-05-29T02:21:50.793Z,14.10
2018-05-29T02:24:18.245Z,14.10
2018-05-29T02:26:46.992Z,14.00
2018-05-29T02:29:14.434Z,14.00
2018-05-29T02:31:41.893Z,14.00
2018-05-29T02:34:09.328Z,14.00
2018-05-29T02:36:36.806Z,14.00
2018-05-29T02:39:04.297Z,14.00
2018-05-29T02:41:31.749Z,14.00
2018-05-29T02:43:59.198Z,14.00
2018-05-29T02:46:26.680Z,14.00
2018-05-29T02:48:54.143Z,14.00
2018-05-29T02:51:21.598Z,13.90
2018-05-29T02:53:49.065Z,13.90
2018-05-29T02:56:16.569Z,13.90
2018-05-29T02:58:44.019Z,13.90
2018-05-29T03:01:12.252Z,13.90
2018-05-29T03:03:39.699Z,13.90
2018-05-29T03:06:07.130Z,13.90
2018-05-29T03:08:34.593Z,13.90
2018-05-29T03:11:02.027Z,14.00
2018-05-29T03:13:30.242Z,14.00
2018-05-29T03:15:57.690Z,14.00
2018-05-29T03:18:25.152Z,14.00
2018-05-29T03:20:52.620Z,14.10
2018-05-29T03:23:20.803Z,14.10
2018-05-29T03:25:48.263Z,14.20
2018-05-29T03:28:15.733Z,14.10
2018-05-29T03:30:43.178Z,14.10
2018-05-29T03:33:10.616Z,14.10
2018-05-29T03:35:38.933Z,14.10
2018-05-29T03:38:06.401Z,14.10
2018-05-29T03:40:33.861Z,14.10
2018-05-29T03:43:02.092Z,14.20
2018-05-29T03:45:30.313Z,14.20
2018-05-29T03:47:57.771Z,14.20
2018-05-29T03:50:25.247Z,14.20
2018-05-29T03:52:52.730Z,14.20
2018-05-29T03:55:20.189Z,14.20
2018-05-29T03:57:47.624Z,14.20
2018-05-29T04:00:15.093Z,14.20
2018-05-29T04:02:42.542Z,14.20
2018-05-29T04:05:10.040Z,14.20
2018-05-29T04:07:37.475Z,14.20
2018-05-29T04:10:04.916Z,14.20
2018-05-29T04:12:32.379Z,14.30
2018-05-29T04:14:59.836Z,14.40
2018-05-29T04:17:27.296Z,14.60
2018-05-29T04:19:54.744Z,14.70
2018-05-29T04:22:22.564Z,14.70
2018-05-29T04:24:49.991Z,14.70
2018-05-29T04:27:17.467Z,14.70
2018-05-29T04:29:44.916Z,14.70
2018-05-29T04:32:12.392Z,14.80
2018-05-29T04:34:39.845Z,14.80
2018-05-29T04:37:07.283Z,14.90
2018-05-29T04:39:35.129Z,15.00
2018-05-29T04:42:02.579Z,15.00
2018-05-29T04:44:30.037Z,15.00
2018-05-29T04:46:58.243Z,15.20
2018-05-29T04:49:25.703Z,15.20
2018-05-29T04:51:53.164Z,15.30
2018-05-29T04:54:20.679Z,15.40
2018-05-29T04:56:48.904Z,15.60
2018-05-29T04:59:16.356Z,15.50
2018-05-29T05:01:43.800Z,15.70
2018-05-29T05:04:11.239Z,15.80
2018-05-29T05:06:39.470Z,15.80
2018-05-29T05:09:06.932Z,15.80
2018-05-29T05:11:34.380Z,15.80
2018-05-29T05:14:01.825Z,15.80
2018-05-29T05:16:29.284Z,15.90
2018-05-29T05:18:56.730Z,15.90
2018-05-29T05:21:24.948Z,16.00
2018-05-29T05:23:52.398Z,15.90
2018-05-29T05:26:19.837Z,16.10
2018-05-29T05:28:48.071Z,16.40
2018-05-29T05:31:15.504Z,16.40
2018-05-29T05:33:42.981Z,16.60
2018-05-29T05:36:10.419Z,16.70
2018-05-29T05:38:37.886Z,16.90
2018-05-29T05:41:05.312Z,17.00
2018-05-29T05:43:32.765Z,17.20
2018-05-29T05:46:00.232Z,17.50
2018-05-29T05:48:27.689Z,17.90
2018-05-29T05:50:56.830Z,18.80
2018-05-29T05:53:24.284Z,18.70
2018-05-29T05:55:51.854Z,19.20
2018-05-29T05:58:19.849Z,19.40
2018-05-29T06:00:47.288Z,19.70
2018-05-29T06:03:15.316Z,19.90
2018-05-29T06:05:43.552Z,20.30
2018-05-29T06:08:10.994Z,20.30
2018-05-29T06:10:38.430Z,20.50
2018-05-29T06:13:05.889Z,20.70
2018-05-29T06:15:34.085Z,21.10
2018-05-29T06:18:01.533Z,21.10
2018-05-29T06:20:29.189Z,21.30
2018-05-29T06:22:57.404Z,21.70
2018-05-29T06:25:24.860Z,21.70
2018-05-29T06:27:52.309Z,21.90
2018-05-29T06:30:19.748Z,22.20
2018-05-29T06:32:48.013Z,22.50
2018-05-29T06:35:15.430Z,22.50
2018-05-29T06:37:43.763Z,22.60
2018-05-29T06:40:16.136Z,22.60
2018-05-29T06:42:44.335Z,22.50
2018-05-29T06:45:11.825Z,22.60
2018-05-29T06:47:40.245Z,22.40
2018-05-29T06:50:08.553Z,22.20
2018-05-29T06:52:36.029Z,22.20
2018-05-29T06:55:04.236Z,22.00
2018-05-29T06:57:31.840Z,21.90
2018-05-29T07:00:00.036Z,21.80
2018-05-29T07:02:27.501Z,21.80
2018-05-29T07:04:54.967Z,21.80
2018-05-29T07:07:22.405Z,21.80
2018-05-29T07:09:50.613Z,21.80
2018-05-29T07:12:18.133Z,21.80
2018-05-29T07:14:46.360Z,21.90
2018-05-29T07:17:16.428Z,21.80
2018-05-29T07:19:43.863Z,22.00
2018-05-29T07:22:11.295Z,22.10
2018-05-29T07:24:38.793Z,22.40
2018-05-29T07:27:06.313Z,22.60
2018-05-29T07:29:33.764Z,22.80
2018-05-29T07:32:01.220Z,22.90
2018-05-29T07:34:28.659Z,23.00
2018-05-29T07:36:56.933Z,23.00
2018-05-29T07:39:24.370Z,23.00
2018-05-29T07:41:51.847Z,23.00
2018-05-29T07:44:19.308Z,23.10
2018-05-29T07:46:46.762Z,23.10
2018-05-29T07:49:14.200Z,23.10
2018-05-29T07:51:41.644Z,23.10
2018-05-29T07:54:09.170Z,23.20
2018-05-29T07:56:37.404Z,23.30
2018-05-29T07:59:04.925Z,23.30
2018-05-29T08:01:33.229Z,23.50
2018-05-29T08:04:01.018Z,23.50
2018-05-29T08:06:28.804Z,23.70
2018-05-29T08:08:57.096Z,24.00
2018-05-29T08:11:24.541Z,24.40
2018-05-29T08:13:52.285Z,24.80
2018-05-29T08:16:20.377Z,25.20
2018-05-29T08:18:48.896Z,26.30
2018-05-29T08:21:17.104Z,26.90
2018-05-29T08:23:45.087Z,26.80
2018-05-29T08:26:12.552Z,27.30
2018-05-29T08:28:40.726Z,27.50
2018-05-29T08:31:09.675Z,27.50
2018-05-29T08:33:37.429Z,27.10
2018-05-29T08:36:07.156Z,27.10
2018-05-29T08:38:37.364Z,27.20
2018-05-29T08:41:05.715Z,27.20
2018-05-29T08:43:33.258Z,27.20
2018-05-29T08:46:01.145Z,27.30
2018-05-29T08:48:28.740Z,27.50
2018-05-29T08:50:56.797Z,27.70
2018-05-29T08:53:24.649Z,28.00
2018-05-29T08:55:53.240Z,28.50
2018-05-29T08:58:20.676Z,29.10
2018-05-29T09:00:48.117Z,29.60
2018-05-29T09:03:16.330Z,29.40
2018-05-29T09:05:43.772Z,29.40
2018-05-29T09:08:13.185Z,29.60
2018-05-29T09:10:40.654Z,30.20
2018-05-29T09:13:08.091Z,30.60
2018-05-29T09:15:35.536Z,30.90
2018-05-29T09:18:04.053Z,31.80
2018-05-29T09:20:31.501Z,31.70
2018-05-29T09:22:59.136Z,31.60
2018-05-29T09:25:26.568Z,31.50
2018-05-29T09:27:54.989Z,31.50
2018-05-29T09:30:23.397Z,31.50
2018-05-29T09:32:51.167Z,31.50
2018-05-29T09:35:19.371Z,31.00
2018-05-29T09:37:46.828Z,30.90
2018-05-29T09:40:14.308Z,30.90
2018-05-29T09:42:41.721Z,30.70
2018-05-29T09:45:09.199Z,30.60
2018-05-29T09:47:36.631Z,30.60
2018-05-29T09:50:04.846Z,30.80
2018-05-29T09:52:33.590Z,30.80
2018-05-29T09:55:01.802Z,30.50
2018-05-29T09:57:29.265Z,30.40
2018-05-29T09:59:56.730Z,30.30
2018-05-29T10:02:24.252Z,30.10
2018-05-29T10:04:52.423Z,29.90
2018-05-29T10:07:20.642Z,29.50
2018-05-29T10:09:48.168Z,29.50
2018-05-29T10:12:16.374Z,29.30
2018-05-29T10:14:43.807Z,29.30
2018-05-29T10:17:12.058Z,29.60
2018-05-29T10:19:39.489Z,29.60
2018-05-29T10:22:06.928Z,29.70
2018-05-29T10:24:34.490Z,29.70
2018-05-29T10:27:01.879Z,29.80
2018-05-29T10:29:29.341Z,29.90
2018-05-29T10:31:57.541Z,30.20
2018-05-29T10:34:24.997Z,30.10
2018-05-29T10:36:52.561Z,30.30
2018-05-29T10:39:20.036Z,30.50
2018-05-29T10:41:47.490Z,30.70
2018-05-29T10:44:14.954Z,30.90
2018-05-29T10:46:42.395Z,31.30
2018-05-29T10:49:09.887Z,31.40
2018-05-29T10:51:37.340Z,31.30
2018-05-29T10:54:04.781Z,31.50
2018-05-29T10:56:32.249Z,31.70
2018-05-29T10:58:59.699Z,32.10
2018-05-29T11:01:27.195Z,32.30
2018-05-29T11:03:55.428Z,32.30
2018-05-29T11:06:22.896Z,32.30
2018-05-29T11:08:50.349Z,32.00
2018-05-29T11:11:17.804Z,32.00
2018-05-29T11:13:45.263Z,32.00
2018-05-29T11:16:12.763Z,31.90
2018-05-29T11:18:40.982Z,32.00
2018-05-29T11:21:08.431Z,31.90
2018-05-29T11:23:36.641Z,31.80
2018-05-29T11:26:04.147Z,31.70
2018-05-29T11:28:31.621Z,31.80
2018-05-29T11:30:59.831Z,32.20
2018-05-29T11:33:28.449Z,32.20
2018-05-29T11:35:55.881Z,32.50
2018-05-29T11:38:23.353Z,32.50
2018-05-29T11:40:51.178Z,32.10
2018-05-29T11:43:18.610Z,31.50
2018-05-29T11:45:47.027Z,30.80
2018-05-29T11:48:14.485Z,30.50
2018-05-29T11:50:42.695Z,31.00
2018-05-29T11:53:10.150Z,31.00
2018-05-29T11:55:37.590Z,31.50
2018-05-29T11:58:06.920Z,32.10
2018-05-29T12:00:34.419Z,32.40
2018-05-29T12:03:01.836Z,32.80
2018-05-29T12:05:29.288Z,33.20
2018-05-29T12:07:56.740Z,33.10
2018-05-29T12:10:24.188Z,33.10
2018-05-29T12:12:52.412Z,33.00
2018-05-29T12:15:19.879Z,33.00
2018-05-29T12:17:47.336Z,33.10
2018-05-29T12:20:14.800Z,33.40
2018-05-29T12:22:42.240Z,33.60
2018-05-29T12:25:09.724Z,33.90
2018-05-29T12:27:37.172Z,33.90
2018-05-29T12:30:04.617Z,34.10
2018-05-29T12:32:32.079Z,33.80
2018-05-29T12:34:59.535Z,33.80
2018-05-29T12:37:26.961Z,33.70
2018-05-29T12:39:55.187Z,32.80
2018-05-29T12:42:22.768Z,32.80
2018-05-29T12:44:50.221Z,33.30
2018-05-29T12:47:17.697Z,33.90
2018-05-29T12:49:45.156Z,34.00
2018-05-29T12:52:12.610Z,33.60
2018-05-29T12:54:40.068Z,32.90
2018-05-29T12:57:07.511Z,32.10
2018-05-29T12:59:34.973Z,31.40
2018-05-29T13:02:02.429Z,30.90
2018-05-29T13:04:29.879Z,30.40
2018-05-29T13:06:57.320Z,30.50
2018-05-29T13:09:24.928Z,30.80
2018-05-29T13:11:53.256Z,31.20
2018-05-29T13:14:21.457Z,31.80
2018-05-29T13:16:49.013Z,31.80
2018-05-29T13:19:16.443Z,31.70
2018-05-29T13:21:44.645Z,30.40
2018-05-29T13:24:12.097Z,30.30
2018-05-29T13:26:40.296Z,29.00
2018-05-29T13:29:07.747Z,28.90
2018-05-29T13:31:35.191Z,29.00
2018-05-29T13:34:03.405Z,29.70
2018-05-29T13:36:30.832Z,29.60
2018-05-29T13:38:59.056Z,30.80
2018-05-29T13:41:26.509Z,30.80
2018-05-29T13:43:53.956Z,31.40
2018-05-29T13:46:22.104Z,32.20
2018-05-29T13:48:50.350Z,32.30
2018-05-29T13:51:17.780Z,32.30
2018-05-29T13:53:45.213Z,31.40
2018-05-29T13:56:13.479Z,30.20
2018-05-29T13:58:42.261Z,30.10
2018-05-29T14:01:09.715Z,30.10
2018-05-29T14:03:37.164Z,30.40
2018-05-29T14:06:04.621Z,30.50
2018-05-29T14:08:32.123Z,30.00
2018-05-29T14:11:00.333Z,28.70
2018-05-29T14:13:27.772Z,28.60
2018-05-29T14:15:55.224Z,28.00
2018-05-29T14:18:23.436Z,26.80
2018-05-29T14:20:50.953Z,26.80
2018-05-29T14:23:18.589Z,26.30
2018-05-29T14:25:46.288Z,25.80
2018-05-29T14:28:13.758Z,25.30
2018-05-29T14:30:41.209Z,24.90
2018-05-29T14:33:09.530Z,23.90
2018-05-29T14:35:36.969Z,23.90
2018-05-29T14:38:04.406Z,23.50
2018-05-29T14:40:32.620Z,22.70
2018-05-29T14:43:00.056Z,22.70
2018-05-29T14:45:27.683Z,22.40
2018-05-29T14:47:55.138Z,22.20
2018-05-29T14:50:22.587Z,22.00
2018-05-29T14:52:50.272Z,21.70
2018-05-29T14:55:18.052Z,21.40
2018-05-29T14:57:45.483Z,21.20
2018-05-29T15:00:12.936Z,20.80
2018-05-29T15:02:40.377Z,20.50
2018-05-29T15:05:07.827Z,20.20
2018-05-29T15:07:35.282Z,20.10
2018-05-29T15:10:02.735Z,20.00
2018-05-29T15:12:30.191Z,19.90
2018-05-29T15:14:58.400Z,19.80
2018-05-29T15:17:25.843Z,19.80
2018-05-29T15:19:53.287Z,19.70
2018-05-29T15:22:21.820Z,20.60
2018-05-29T15:24:50.054Z,21.30
2018-05-29T15:27:17.459Z,21.30
2018-05-29T15:29:44.903Z,22.10
2018-05-29T15:32:12.348Z,22.70
2018-05-29T15:34:39.804Z,23.60
2018-05-29T15:37:07.238Z,24.70
2018-05-29T15:39:35.622Z,25.80
2018-05-29T15:42:03.818Z,27.20
2018-05-29T15:44:31.256Z,27.20
2018-05-29T15:46:58.711Z,27.80
2018-05-29T15:49:26.222Z,28.30
2018-05-29T15:51:53.662Z,29.00
2018-05-29T15:54:21.120Z,29.80
2018-05-29T15:56:49.340Z,29.70
2018-05-29T15:59:16.761Z,29.60
2018-05-29T16:01:44.211Z,28.50
2018-05-29T16:04:12.412Z,27.60
2018-05-29T16:06:39.846Z,27.60
2018-05-29T16:09:08.060Z,28.60
2018-05-29T16:11:35.487Z,28.50
2018-05-29T16:14:04.317Z,28.70
2018-05-29T16:16:32.008Z,28.20
2018-05-29T16:18:59.511Z,27.70
2018-05-29T16:21:27.728Z,28.30
2018-05-29T16:23:55.904Z,28.30
2018-05-29T16:26:23.453Z,29.00
2018-05-29T16:28:50.888Z,29.70
2018-05-29T16:31:18.398Z,30.20
2018-05-29T16:33:45.843Z,30.20
2018-05-29T16:36:13.282Z,29.70
2018-05-29T16:41:33.417Z,28.40
2018-05-29T16:44:00.862Z,27.70
2018-05-29T16:46:28.407Z,27.10
2018-05-29T16:48:56.825Z,26.50
2018-05-29T16:51:25.005Z,26.30
2018-05-29T16:53:52.450Z,26.30
2018-05-29T16:56:19.919Z,26.10
2018-05-29T16:58:47.361Z,25.60
2018-05-29T17:01:15.689Z,25.20
2018-05-29T17:03:43.248Z,25.10
2018-05-29T17:06:10.703Z,24.90
2018-05-29T17:08:38.184Z,24.70
2018-05-29T17:11:05.613Z,24.30
2018-05-29T17:13:33.078Z,23.90
2018-05-29T17:16:00.520Z,23.40
2018-05-29T17:18:27.977Z,23.10
2018-05-29T17:20:55.421Z,22.80
2018-05-29T17:23:22.960Z,22.60
2018-05-29T17:25:50.401Z,22.40
2018-05-29T17:28:17.865Z,22.10
2018-05-29T17:30:45.305Z,22.00
2018-05-29T17:33:12.769Z,21.80
2018-05-29T17:35:40.213Z,21.60
2018-05-29T17:38:07.680Z,21.40
2018-05-29T17:40:35.148Z,21.30
2018-05-29T17:43:02.618Z,21.20
2018-05-29T17:45:30.061Z,21.10
2018-05-29T17:47:57.521Z,21.00
2018-05-29T17:50:24.999Z,21.00
2018-05-29T17:52:52.463Z,21.00
2018-05-29T17:55:19.900Z,20.90
2018-05-29T17:57:47.367Z,20.80
2018-05-29T18:00:15.676Z,20.70
2018-05-29T18:02:43.114Z,20.70
2018-05-29T18:05:11.342Z,20.70
2018-05-29T18:07:39.562Z,20.70
2018-05-29T18:10:07.026Z,20.70
2018-05-29T18:12:34.505Z,20.70
2018-05-29T18:15:01.956Z,20.70
2018-05-29T18:17:29.400Z,20.70
2018-05-29T18:19:56.866Z,20.60
2018-05-29T18:22:24.312Z,20.60
2018-05-29T18:24:51.782Z,20.50
2018-05-29T18:27:19.223Z,20.50
2018-05-29T18:29:46.746Z,20.50
2018-05-29T18:32:14.251Z,20.40
2018-05-29T18:34:41.704Z,20.30
2018-05-29T18:37:09.148Z,20.20
2018-05-29T18:39:37.387Z,20.00
2018-05-29T18:42:04.814Z,20.00
2018-05-29T18:44:32.283Z,19.90
2018-05-29T18:46:59.923Z,19.90
2018-05-29T18:49:27.427Z,19.90
2018-05-29T18:51:54.880Z,19.80
2018-05-29T18:54:22.312Z,19.70
2018-05-29T18:56:49.820Z,19.60
2018-05-29T18:59:17.278Z,19.50
2018-05-29T19:01:44.756Z,19.30
2018-05-29T19:04:12.995Z,19.20
2018-05-29T19:06:41.230Z,19.20
2018-05-29T19:09:09.436Z,19.10
2018-05-29T19:11:36.921Z,19.00
2018-05-29T19:14:04.352Z,19.00
2018-05-29T19:16:31.803Z,19.00
2018-05-29T19:19:00.108Z,18.90
2018-05-29T19:21:27.609Z,18.80
2018-05-29T19:23:55.062Z,18.70
2018-05-29T19:26:22.544Z,18.70
2018-05-29T19:28:50.029Z,18.70
2018-05-29T19:31:18.242Z,18.70
2018-05-29T19:33:45.691Z,18.60
2018-05-29T19:36:13.152Z,18.60
2018-05-29T19:38:40.641Z,18.60
2018-05-29T19:41:08.108Z,18.60
2018-05-29T19:43:36.320Z,18.40
2018-05-29T19:46:04.556Z,18.30
2018-05-29T19:48:33.509Z,18.20
2018-05-29T19:51:01.141Z,18.20
2018-05-29T19:53:28.726Z,18.20
2018-05-29T19:55:57.055Z,18.10
2018-05-29T19:58:25.525Z,18.10
2018-05-29T20:00:52.972Z,18.00
2018-05-29T20:03:20.454Z,18.00
2018-05-29T20:05:47.908Z,17.90
2018-05-29T20:08:15.353Z,17.80
2018-05-29T20:10:42.816Z,17.80
2018-05-29T20:13:10.357Z,17.70
2018-05-29T20:15:37.794Z,17.60
2018-05-29T20:18:05.252Z,17.60
2018-05-29T20:20:33.480Z,17.40
2018-05-29T20:23:01.750Z,17.40
2018-05-29T20:25:29.181Z,17.30
2018-05-29T20:27:57.407Z,17.20
2018-05-29T20:30:26.006Z,17.20
2018-05-29T20:32:53.464Z,17.20
2018-05-29T20:35:21.104Z,17.10
2018-05-29T20:37:48.580Z,17.00
2018-05-29T20:40:16.044Z,16.90
2018-05-29T20:42:43.526Z,16.90
2018-05-29T20:45:10.982Z,16.90
2018-05-29T20:47:38.450Z,16.80
2018-05-29T20:50:05.933Z,16.70
2018-05-29T20:52:33.630Z,16.70
2018-05-29T20:55:01.366Z,16.70
2018-05-29T20:57:29.576Z,16.60
2018-05-29T20:59:57.090Z,16.60
2018-05-29T21:02:24.985Z,16.60
2018-05-29T21:04:52.428Z,16.60
2018-05-29T21:07:19.899Z,16.60
2018-05-29T21:09:47.348Z,16.50
2018-05-29T21:12:14.797Z,16.60
2018-05-29T21:14:42.300Z,16.60
2018-05-29T21:17:10.539Z,16.50
2018-05-29T21:19:38.042Z,16.40
2018-05-29T21:22:05.477Z,16.40
2018-05-29T21:24:32.977Z,16.40
2018-05-29T21:27:00.544Z,16.30
2018-05-29T21:29:28.000Z,16.30
2018-05-29T21:31:55.459Z,16.30
2018-05-29T21:34:22.910Z,16.30
2018-05-29T21:36:50.366Z,16.20
2018-05-29T21:39:17.843Z,16.20
2018-05-29T21:41:46.323Z,16.10
2018-05-29T21:44:13.785Z,16.10
2018-05-29T21:46:41.237Z,16.10
2018-05-29T21:49:08.731Z,16.00
2018-05-29T21:51:36.961Z,15.90
2018-05-29T21:54:05.349Z,15.90
2018-05-29T21:56:32.843Z,15.90
2018-05-29T21:59:00.292Z,15.80
2018-05-29T22:01:27.754Z,15.80
2018-05-29T22:04:00.821Z,15.80
2018-05-29T22:06:28.425Z,15.80
2018-05-29T22:08:55.873Z,15.80
2018-05-29T22:11:23.333Z,15.80
2018-05-29T22:13:50.816Z,15.70
2018-05-29T22:16:18.258Z,15.70
2018-05-29T22:18:45.745Z,15.60
2018-05-29T22:21:13.217Z,15.60
2018-05-29T22:23:40.667Z,15.50
2018-05-29T22:26:09.105Z,15.50
2018-05-29T22:28:36.585Z,15.40
2018-05-29T22:31:05.036Z,15.50
2018-05-29T22:33:32.493Z,15.40
2018-05-29T22:36:00.236Z,15.40
2018-05-29T22:38:28.496Z,15.30
2018-05-29T22:40:55.937Z,15.20
2018-05-29T22:43:23.394Z,15.30
2018-05-29T22:45:50.850Z,15.30
2018-05-29T22:48:18.318Z,15.30
2018-05-29T22:50:45.775Z,15.20
2018-05-29T22:53:13.245Z,15.20
2018-05-29T22:55:40.729Z,15.20
2018-05-29T22:58:08.169Z,15.20
2018-05-29T23:00:35.661Z,15.20
2018-05-29T23:03:03.089Z,15.30
2018-05-29T23:05:30.551Z,15.40
2018-05-29T23:07:58.011Z,15.40
2018-05-29T23:10:25.487Z,15.50
2018-05-29T23:12:52.933Z,15.50
2018-05-29T23:15:20.385Z,15.50
2018-05-29T23:17:47.843Z,15.50
2018-05-29T23:20:15.284Z,15.50
2018-05-29T23:22:42.766Z,15.50
2018-05-29T23:25:10.236Z,15.60
2018-05-29T23:27:37.703Z,15.60
2018-05-29T23:30:05.293Z,15.70
2018-05-29T23:32:33.550Z,15.80
2018-05-29T23:35:00.945Z,15.80
2018-05-29T23:37:28.409Z,15.90
2018-05-29T23:39:56.635Z,15.80
2018-05-29T23:42:25.085Z,15.80
2018-05-29T23:44:52.559Z,15.70
2018-05-29T23:47:19.992Z,15.70
2018-05-29T23:49:48.559Z,15.90
2018-05-29T23:52:16.773Z,16.00
2018-05-29T23:54:44.224Z,16.00
2018-05-29T23:57:11.689Z,16.00
2018-05-29T23:59:39.484Z,16.00
